Time;durP1;ratioP1;P1;durP2;ratioP2;P2;SDS_P1;SDS_P2;PMS_P1;PMS_P2;Temp;Humidity;BMP_temperature;BMP_pressure;BME280_temperature;BME280_humidity;BME280_pressure;Samples;Min_cycle;Max_cycle;Signal;HPM_P1;HPM_P2
2021/05/08 00:00:32;;;;;;;;;;;;;;;6.08;70.52;99814.56;5115530;28;19925;-73
2021/05/08 00:03:00;;;;;;;;;;;;;;;6.04;70.97;99810.25;5115506;28;19969;-74
2021/05/08 00:05:32;;;;;;;;;;;;;;;5.98;71.17;99811.00;5136012;27;20022;-72
2021/05/08 00:08:05;;;;;;;;;;;;;;;5.87;71.41;99817.53;5121563;27;19951;-73
2021/05/08 00:10:33;;;;;;;;;;;;;;;5.81;71.51;99817.34;5114323;27;20400;-71
2021/05/08 00:13:01;;;;;;;;;;;;;;;5.81;71.74;99808.91;5115872;27;19924;-73
2021/05/08 00:15:31;;;;;;;;;;;;;;;5.77;71.80;99814.75;5115501;28;19934;-72
2021/05/08 00:18:02;;;;;;;;;;;;;;;5.74;71.83;99809.59;5114667;28;19923;-72
2021/05/08 00:20:30;;;;;;;;;;;;;;;5.69;72.25;99823.84;5114859;28;20035;-72
2021/05/08 00:22:58;;;;;;;;;;;;;;;5.61;72.40;99827.91;5114843;28;19951;-73
2021/05/08 00:25:26;;;;;;;;;;;;;;;5.61;72.39;99843.09;5116797;27;19923;-72
2021/05/08 00:27:54;;;;;;;;;;;;;;;5.61;72.43;99838.03;5114493;28;20400;-72
2021/05/08 00:30:25;;;;;;;;;;;;;;;5.59;72.48;99844.75;5115562;28;19928;-72
2021/05/08 00:33:07;;;;;;;;;;;;;;;5.54;72.69;99841.25;5115260;28;19924;-73
2021/05/08 00:35:35;;;;;;;;;;;;;;;5.42;72.64;99841.84;5115887;28;20014;-73
2021/05/08 00:38:03;;;;;;;;;;;;;;;5.34;72.93;99851.78;5114746;27;19924;-73
2021/05/08 00:40:32;;;;;;;;;;;;;;;5.34;73.26;99849.28;5114245;27;19951;-73
2021/05/08 00:43:02;;;;;;;;;;;;;;;5.28;72.59;99848.25;5118830;27;19931;-72
2021/05/08 00:45:30;;;;;;;;;;;;;;;5.17;73.22;99859.81;5114988;27;19963;-72
2021/05/08 00:48:05;;;;;;;;;;;;;;;5.15;73.19;99856.41;5115254;28;19927;-72
2021/05/08 00:50:35;;;;;;;;;;;;;;;5.09;73.59;99864.69;5117057;27;19927;-72
2021/05/08 00:53:08;;;;;;;;;;;;;;;5.12;73.03;99866.44;5135809;27;19965;-71
2021/05/08 00:55:37;;;;;;;;;;;;;;;5.21;73.44;99866.63;5116954;27;19963;-72
2021/05/08 00:58:07;;;;;;;;;;;;;;;5.22;73.42;99869.22;5114516;27;19987;-72
2021/05/08 01:00:37;;;;;;;;;;;;;;;5.23;73.20;99873.44;5115949;27;20420;-72
2021/05/08 01:03:07;;;;;;;;;;;;;;;5.18;73.38;99867.41;5114579;27;20381;-72
2021/05/08 01:05:38;;;;;;;;;;;;;;;5.15;73.45;99874.97;5114648;28;20329;-72
2021/05/08 01:08:13;;;;;;;;;;;;;;;5.18;73.69;99871.66;5114470;28;19924;-73
2021/05/08 01:11:09;;;;;;;;;;;;;;;5.11;73.60;99879.91;5036107;28;19925;-72
2021/05/08 01:13:38;;;;;;;;;;;;;;;5.04;73.33;99881.41;5024804;28;19932;-72
2021/05/08 01:16:09;;;;;;;;;;;;;;;5.01;73.69;99888.09;5050463;28;19933;-71
2021/05/08 01:18:43;;;;;;;;;;;;;;;5.04;73.90;99883.94;5051331;28;19955;-72
2021/05/08 01:21:14;;;;;;;;;;;;;;;5.03;73.89;99877.19;5051274;28;20381;-72
2021/05/08 01:23:44;;;;;;;;;;;;;;;4.99;73.83;99877.91;5052221;28;19988;-72
2021/05/08 01:26:16;;;;;;;;;;;;;;;4.95;73.90;99878.66;5036813;28;19925;-72
2021/05/08 01:28:45;;;;;;;;;;;;;;;4.91;73.85;99892.06;5032096;28;19929;-72
2021/05/08 01:31:13;;;;;;;;;;;;;;;4.89;74.34;99893.72;5037720;28;19924;-72
2021/05/08 01:33:46;;;;;;;;;;;;;;;4.91;74.30;99902.19;5036377;28;19953;-72
2021/05/08 01:36:15;;;;;;;;;;;;;;;4.96;74.53;99900.63;5031959;28;19929;-72
2021/05/08 01:38:47;;;;;;;;;;;;;;;4.96;74.18;99895.56;5035420;28;20027;-72
2021/05/08 01:41:19;;;;;;;;;;;;;;;4.95;74.24;99903.97;5044087;28;19979;-72
2021/05/08 01:43:47;;;;;;;;;;;;;;;4.95;74.71;99903.97;5035092;28;20374;-73
2021/05/08 01:46:15;;;;;;;;;;;;;;;4.91;74.52;99904.72;5045281;28;19924;-72
2021/05/08 01:48:48;;;;;;;;;;;;;;;4.81;74.58;99907.81;5092687;28;19927;-72
2021/05/08 01:51:21;;;;;;;;;;;;;;;4.80;74.61;99908.63;5101350;28;19959;-72
2021/05/08 01:53:49;;;;;;;;;;;;;;;4.73;74.91;99912.66;5115456;28;20441;-72
2021/05/08 01:56:20;;;;;;;;;;;;;;;4.71;74.55;99913.44;5117235;28;20258;-72
2021/05/08 01:58:54;;;;;;;;;;;;;;;4.67;75.03;99914.19;5096413;28;19973;-74
2021/05/08 02:01:26;;;;;;;;;;;;;;;4.62;75.09;99918.25;5096385;28;20381;-71
2021/05/08 02:03:54;;;;;;;;;;;;;;;4.55;75.16;99921.44;5115364;28;19985;-72
2021/05/08 02:06:24;;;;;;;;;;;;;;;4.52;74.99;99931.47;5134855;28;19924;-72
2021/05/08 02:09:07;;;;;;;;;;;;;;;4.50;74.95;99933.09;5134785;28;19942;-73
2021/05/08 02:11:42;;;;;;;;;;;;;;;4.53;75.11;99940.78;5114654;28;19930;-73
2021/05/08 02:14:14;;;;;;;;;;;;;;;4.54;75.39;99934.88;5116662;28;19977;-73
2021/05/08 02:16:42;;;;;;;;;;;;;;;4.54;75.65;99938.28;5099834;28;20009;-73
2021/05/08 02:19:15;;;;;;;;;;;;;;;4.61;75.38;99937.63;5114639;28;20404;-73
2021/05/08 02:21:46;;;;;;;;;;;;;;;4.68;75.45;99934.44;5116876;28;20297;-73
2021/05/08 02:24:14;;;;;;;;;;;;;;;4.76;75.33;99932.13;5121047;27;19934;-73
2021/05/08 02:26:42;;;;;;;;;;;;;;;4.80;75.35;99933.06;5127438;27;19931;-72
2021/05/08 02:29:11;;;;;;;;;;;;;;;4.84;75.38;99938.25;5135710;27;20280;-74
2021/05/08 02:31:39;;;;;;;;;;;;;;;4.85;74.97;99945.00;5100041;28;20281;-72
2021/05/08 02:34:08;;;;;;;;;;;;;;;4.83;75.13;99948.28;5117386;27;19924;-73
2021/05/08 02:36:39;;;;;;;;;;;;;;;4.87;75.00;99950.94;5118532;27;20022;-72
2021/05/08 02:39:08;;;;;;;;;;;;;;;4.87;74.73;99947.59;5085323;28;20312;-73
2021/05/08 02:41:37;;;;;;;;;;;;;;;4.80;74.67;99949.06;5105031;28;20010;-72
2021/05/08 02:44:06;;;;;;;;;;;;;;;4.77;74.58;99951.53;5118074;27;19923;-73
2021/05/08 02:46:34;;;;;;;;;;;;;;;4.81;74.53;99945.75;5117596;28;19923;-72
2021/05/08 02:49:03;;;;;;;;;;;;;;;4.85;74.50;99952.56;5117865;28;19924;-72
2021/05/08 02:51:31;;;;;;;;;;;;;;;4.87;74.21;99957.69;5127535;27;19962;-72
2021/05/08 02:53:59;;;;;;;;;;;;;;;4.82;74.46;99957.56;5136164;27;20014;-74
2021/05/08 02:56:28;;;;;;;;;;;;;;;4.82;73.91;99957.56;5121998;27;20016;-72
2021/05/08 02:59:00;;;;;;;;;;;;;;;4.82;73.92;99967.69;5116851;27;20354;-72
2021/05/08 03:01:31;;;;;;;;;;;;;;;4.78;73.61;99960.81;5117049;28;20019;-72
2021/05/08 03:04:00;;;;;;;;;;;;;;;4.77;74.22;99969.25;5116788;27;19947;-73
2021/05/08 03:06:31;;;;;;;;;;;;;;;4.79;74.15;99970.13;5120151;27;19931;-72
2021/05/08 03:08:59;;;;;;;;;;;;;;;4.85;74.07;99972.81;5100664;27;20020;-74
2021/05/08 03:11:31;;;;;;;;;;;;;;;4.87;74.27;99978.75;5132241;27;19975;-73
2021/05/08 03:14:05;;;;;;;;;;;;;;;4.88;73.63;99972.91;5105415;28;19924;-72
2021/05/08 03:16:34;;;;;;;;;;;;;;;4.87;73.48;99977.94;5116559;28;20388;-72
2021/05/08 03:19:02;;;;;;;;;;;;;;;4.86;73.96;99981.25;5097770;28;19959;-74
2021/05/08 03:21:32;;;;;;;;;;;;;;;4.84;73.54;99977.84;5115632;28;20393;-73
2021/05/08 03:24:03;;;;;;;;;;;;;;;4.84;73.94;99991.34;5137761;27;19924;-72
2021/05/08 03:26:32;;;;;;;;;;;;;;;4.81;73.60;99986.19;5102087;27;19924;-73
2021/05/08 03:29:04;;;;;;;;;;;;;;;4.73;73.73;99985.13;5098587;28;19930;-72
2021/05/08 03:31:35;;;;;;;;;;;;;;;4.65;73.51;99986.59;5121745;27;19930;-72
2021/05/08 03:34:04;;;;;;;;;;;;;;;4.58;74.35;99992.31;5116357;28;19969;-72
2021/05/08 03:36:36;;;;;;;;;;;;;;;4.53;73.69;99993.84;5098319;28;19947;-72
2021/05/08 03:39:08;;;;;;;;;;;;;;;4.54;74.61;100003.97;5117033;27;20000;-72
2021/05/08 03:41:38;;;;;;;;;;;;;;;4.60;74.30;99998.25;5116616;27;19931;-72
2021/05/08 03:44:09;;;;;;;;;;;;;;;4.66;74.82;99996.75;5117411;27;20363;-75
2021/05/08 03:46:40;;;;;;;;;;;;;;;4.69;74.63;100011.13;5126949;27;20365;-72
2021/05/08 03:49:12;;;;;;;;;;;;;;;4.73;74.53;100007.88;5117287;27;19923;-72
2021/05/08 03:51:40;;;;;;;;;;;;;;;4.78;74.34;100016.44;5115986;27;19976;-73
2021/05/08 03:54:09;;;;;;;;;;;;;;;4.79;74.91;100008.06;5115802;27;20388;-73
2021/05/08 03:56:41;;;;;;;;;;;;;;;4.86;75.05;100020.03;5116320;27;19924;-73
2021/05/08 03:59:13;;;;;;;;;;;;;;;4.94;74.92;100023.66;5117246;27;19924;-71
2021/05/08 04:01:44;;;;;;;;;;;;;;;5.06;74.80;100025.66;5115470;27;19923;-72
2021/05/08 04:04:15;;;;;;;;;;;;;;;5.17;74.42;100032.69;5098291;28;19931;-72
2021/05/08 04:06:46;;;;;;;;;;;;;;;5.28;74.78;100030.44;5115829;27;19924;-72
2021/05/08 04:09:14;;;;;;;;;;;;;;;5.38;74.62;100035.78;5117657;27;20365;-73
2021/05/08 04:11:44;;;;;;;;;;;;;;;5.53;74.04;100040.38;5082299;27;19947;-73
2021/05/08 04:14:18;;;;;;;;;;;;;;;5.64;73.80;100040.66;5115898;28;20019;-72
2021/05/08 04:16:49;;;;;;;;;;;;;;;5.80;73.52;100042.72;5129038;27;19923;-73
2021/05/08 04:19:20;;;;;;;;;;;;;;;5.94;73.41;100041.41;5131152;27;19947;-73
2021/05/08 04:21:48;;;;;;;;;;;;;;;6.08;73.11;100042.56;5114515;27;19928;-73
2021/05/08 04:24:24;;;;;;;;;;;;;;;6.25;72.14;100048.88;5097396;27;19927;-73
2021/05/08 04:26:54;;;;;;;;;;;;;;;6.45;72.06;100050.19;5121704;27;19931;-74
2021/05/08 04:29:22;;;;;;;;;;;;;;;6.60;71.66;100055.56;5113837;28;19931;-73
2021/05/08 04:31:56;;;;;;;;;;;;;;;6.80;71.33;100055.13;5098231;28;19924;-72
2021/05/08 04:34:25;;;;;;;;;;;;;;;7.00;70.70;100053.84;5115257;28;20369;-72
2021/05/08 04:36:53;;;;;;;;;;;;;;;7.17;70.16;100062.63;5114916;27;19924;-73
2021/05/08 04:39:21;;;;;;;;;;;;;;;7.38;69.77;100058.81;5132093;27;19931;-73
2021/05/08 04:41:54;;;;;;;;;;;;;;;7.54;69.36;100059.91;5116284;27;19934;-73
2021/05/08 04:44:23;;;;;;;;;;;;;;;7.62;69.59;100068.53;5113580;27;20373;-73
2021/05/08 04:46:57;;;;;;;;;;;;;;;7.76;68.93;100068.75;5114417;28;19924;-73
2021/05/08 04:49:26;;;;;;;;;;;;;;;7.81;69.02;100075.63;5114245;28;19927;-73
2021/05/08 04:51:59;;;;;;;;;;;;;;;7.90;68.07;100074.91;5120844;27;20027;-73
2021/05/08 04:54:27;;;;;;;;;;;;;;;8.03;67.79;100081.91;5131872;27;19924;-73
2021/05/08 04:56:56;;;;;;;;;;;;;;;8.18;67.74;100081.31;5114125;27;19927;-73
2021/05/08 04:59:27;;;;;;;;;;;;;;;8.31;67.69;100089.16;5096318;28;19931;-73
2021/05/08 05:02:00;;;;;;;;;;;;;;;8.41;67.16;100085.06;5117309;27;19928;-73
2021/05/08 05:04:29;;;;;;;;;;;;;;;8.50;67.07;100090.28;5096843;28;20026;-73
2021/05/08 05:07:00;;;;;;;;;;;;;;;8.58;66.76;100088.69;5114618;28;19984;-72
2021/05/08 05:09:29;;;;;;;;;;;;;;;8.69;66.83;100089.69;5116637;27;19966;-72
2021/05/08 05:12:01;;;;;;;;;;;;;;;8.72;66.49;100087.19;5117433;27;20034;-73
2021/05/08 05:14:32;;;;;;;;;;;;;;;8.81;66.82;100089.84;5113609;28;19931;-72
2021/05/08 05:17:01;;;;;;;;;;;;;;;8.88;66.15;100094.19;5114703;28;19978;-71
2021/05/08 05:19:29;;;;;;;;;;;;;;;8.69;64.46;100097.31;5114319;28;19924;-72
2021/05/08 05:22:00;;;;;;;;;;;;;;;8.56;64.23;100101.41;5114685;27;19979;-73
2021/05/08 05:24:31;;;;;;;;;;;;;;;8.44;63.97;100110.56;5114999;28;19924;-72
2021/05/08 05:27:03;;;;;;;;;;;;;;;8.41;64.35;100106.28;5115232;28;19969;-73
2021/05/08 05:29:36;;;;;;;;;;;;;;;8.51;64.42;100102.16;5099636;28;19924;-73
2021/05/08 05:32:07;;;;;;;;;;;;;;;8.70;64.69;100104.13;5118991;28;19924;-73
2021/05/08 05:34:35;;;;;;;;;;;;;;;8.82;64.33;100109.38;5114260;28;19993;-72
2021/05/08 05:37:04;;;;;;;;;;;;;;;8.81;63.13;100107.66;5112731;28;19927;-73
2021/05/08 05:39:32;;;;;;;;;;;;;;;8.87;63.12;100106.91;5112521;28;19930;-73
2021/05/08 05:42:00;;;;;;;;;;;;;;;8.94;62.91;100114.63;5113295;28;19980;-73
2021/05/08 05:44:29;;;;;;;;;;;;;;;8.84;62.76;100117.91;5095805;28;19931;-72
2021/05/08 05:46:57;;;;;;;;;;;;;;;8.86;62.52;100113.66;5115788;28;20434;-72
2021/05/08 05:49:26;;;;;;;;;;;;;;;8.87;62.61;100117.94;5115752;28;19935;-73
2021/05/08 05:51:57;;;;;;;;;;;;;;;8.90;62.61;100120.50;5116781;28;19923;-72
2021/05/08 05:54:25;;;;;;;;;;;;;;;8.94;61.80;100119.72;5117482;28;20370;-72
2021/05/08 05:56:57;;;;;;;;;;;;;;;8.97;62.68;100124.88;5114512;28;19924;-72
2021/05/08 05:59:26;;;;;;;;;;;;;;;9.01;62.87;100131.69;5120303;27;19950;-73
2021/05/08 06:01:55;;;;;;;;;;;;;;;9.15;62.06;100127.63;5138956;27;19924;-72
2021/05/08 06:04:23;;;;;;;;;;;;;;;9.31;61.79;100134.59;5126927;27;19931;-72
2021/05/08 06:06:52;;;;;;;;;;;;;;;9.35;61.78;100122.78;5120601;27;19924;-73
2021/05/08 06:09:21;;;;;;;;;;;;;;;9.46;61.43;100126.28;5121616;27;19955;-73
2021/05/08 06:11:49;;;;;;;;;;;;;;;9.60;60.92;100134.91;5123037;27;19923;-73
2021/05/08 06:14:17;;;;;;;;;;;;;;;9.68;60.71;100132.44;5125398;27;20372;-72
2021/05/08 06:16:48;;;;;;;;;;;;;;;9.78;60.09;100130.03;5138497;27;19927;-72
2021/05/08 06:19:18;;;;;;;;;;;;;;;9.90;59.75;100136.94;5135780;27;19930;-72
2021/05/08 06:21:46;;;;;;;;;;;;;;;10.03;59.41;100131.94;5126975;27;19934;-73
2021/05/08 06:24:14;;;;;;;;;;;;;;;10.15;59.45;100131.22;5131668;27;19927;-73
2021/05/08 06:26:42;;;;;;;;;;;;;;;10.23;58.86;100129.59;5119485;27;19924;-72
2021/05/08 06:29:10;;;;;;;;;;;;;;;10.34;58.97;100133.06;5117522;28;20014;-72
2021/05/08 06:31:38;;;;;;;;;;;;;;;10.36;58.73;100133.94;5118097;28;19973;-71
2021/05/08 06:34:07;;;;;;;;;;;;;;;10.41;58.03;100129.75;5117377;27;19923;-73
2021/05/08 06:36:36;;;;;;;;;;;;;;;10.58;58.84;100128.13;5100101;28;19946;-72
2021/05/08 06:39:04;;;;;;;;;;;;;;;10.69;57.73;100128.22;5120016;27;19924;-72
2021/05/08 06:41:35;;;;;;;;;;;;;;;10.51;57.80;100131.50;5120811;27;19976;-72
2021/05/08 06:44:04;;;;;;;;;;;;;;;10.50;57.40;100128.94;5128158;27;20278;-74
2021/05/08 06:46:35;;;;;;;;;;;;;;;10.56;57.68;100129.81;5104284;28;19930;-72
2021/05/08 06:49:06;;;;;;;;;;;;;;;10.63;57.88;100126.47;5117151;27;19924;-72
2021/05/08 06:51:35;;;;;;;;;;;;;;;10.80;57.32;100123.19;5117534;28;19923;-72
2021/05/08 06:54:04;;;;;;;;;;;;;;;10.73;57.10;100129.91;5117056;27;20415;-71
2021/05/08 06:56:32;;;;;;;;;;;;;;;10.80;57.25;100133.38;5127214;27;19962;-71
2021/05/08 06:58:59;;;;;;;;;;;;;;;10.81;56.92;100124.88;5135403;27;19966;-73
2021/05/08 07:01:27;;;;;;;;;;;;;;;10.90;56.69;100130.00;5137852;27;19976;-72
2021/05/08 07:03:56;;;;;;;;;;;;;;;10.98;56.64;100123.25;5137501;27;19923;-72
2021/05/08 07:06:28;;;;;;;;;;;;;;;11.08;56.68;100122.47;5119478;27;19931;-73
2021/05/08 07:08:57;;;;;;;;;;;;;;;11.11;56.27;100130.13;5121086;27;19923;-72
2021/05/08 07:11:26;;;;;;;;;;;;;;;11.18;56.38;100121.66;5128010;27;19938;-71
2021/05/08 07:13:54;;;;;;;;;;;;;;;11.35;55.78;100119.97;5126695;27;19966;-73
2021/05/08 07:16:22;;;;;;;;;;;;;;;11.58;55.90;100123.47;5120731;27;19924;-73
2021/05/08 07:18:53;;;;;;;;;;;;;;;11.82;55.69;100130.38;5117059;28;19986;-72
2021/05/08 07:21:21;;;;;;;;;;;;;;;11.87;55.31;100121.84;5119683;27;19924;-73
2021/05/08 07:23:49;;;;;;;;;;;;;;;11.86;54.47;100125.25;5116041;27;19923;-74
2021/05/08 07:26:19;;;;;;;;;;;;;;;11.93;54.16;100121.84;5124267;27;20391;-73
2021/05/08 07:28:57;;;;;;;;;;;;;;;12.04;53.71;100117.56;5107008;27;19928;-76
2021/05/08 07:31:26;;;;;;;;;;;;;;;12.01;53.41;100117.59;5117277;27;19930;-73
2021/05/08 07:34:01;;;;;;;;;;;;;;;12.12;53.77;100120.16;5132610;27;19923;-73
2021/05/08 07:36:29;;;;;;;;;;;;;;;12.21;53.65;100121.88;5116539;28;20258;-73
2021/05/08 07:38:57;;;;;;;;;;;;;;;12.33;53.78;100116.75;5125298;27;19924;-73
2021/05/08 07:41:26;;;;;;;;;;;;;;;12.25;53.71;100123.56;5124830;27;19963;-74
2021/05/08 07:43:54;;;;;;;;;;;;;;;12.14;53.44;100125.28;5129856;27;20387;-74
2021/05/08 07:46:25;;;;;;;;;;;;;;;11.96;53.81;100131.22;5132892;27;19924;-73
2021/05/08 07:48:56;;;;;;;;;;;;;;;11.92;54.41;100126.97;5136088;27;19930;-72
2021/05/08 07:51:24;;;;;;;;;;;;;;;11.77;53.86;100134.63;5115592;27;19968;-74
2021/05/08 07:53:52;;;;;;;;;;;;;;;11.64;53.39;100138.81;5130741;27;20020;-74
2021/05/08 07:56:22;;;;;;;;;;;;;;;11.78;53.80;100139.72;5108819;27;19928;-74
2021/05/08 07:58:54;;;;;;;;;;;;;;;11.87;53.74;100133.78;5122147;27;19968;-73
2021/05/08 08:01:25;;;;;;;;;;;;;;;11.90;53.76;100144.84;5120521;27;19924;-73
2021/05/08 08:03:53;;;;;;;;;;;;;;;12.10;53.87;100145.75;5120835;27;20369;-73
2021/05/08 08:06:22;;;;;;;;;;;;;;;12.53;54.24;100145.72;5114351;28;19953;-73
2021/05/08 08:08:50;;;;;;;;;;;;;;;12.68;54.07;100150.81;5115268;27;19951;-74
2021/05/08 08:11:19;;;;;;;;;;;;;;;12.64;53.31;100151.69;5130871;27;19946;-74
2021/05/08 08:13:48;;;;;;;;;;;;;;;12.55;52.20;100146.56;5132615;27;19931;-72
2021/05/08 08:16:21;;;;;;;;;;;;;;;12.48;51.87;100157.66;5121658;27;19935;-73
2021/05/08 08:18:49;;;;;;;;;;;;;;;12.45;51.86;100147.44;5116356;27;20111;-74
2021/05/08 08:21:18;;;;;;;;;;;;;;;12.42;51.81;100152.56;5115618;27;19939;-74
2021/05/08 08:23:46;;;;;;;;;;;;;;;12.38;51.80;100149.13;5121882;27;19928;-73
2021/05/08 08:26:14;;;;;;;;;;;;;;;12.38;51.97;100150.88;5117269;27;20014;-74
2021/05/08 08:28:42;;;;;;;;;;;;;;;12.33;51.18;100152.56;5102432;27;19927;-74
2021/05/08 08:31:10;;;;;;;;;;;;;;;12.22;50.23;100154.25;5127144;27;19923;-72
2021/05/08 08:33:39;;;;;;;;;;;;;;;12.33;50.12;100148.31;5133748;27;20361;-72
2021/05/08 08:36:08;;;;;;;;;;;;;;;12.59;49.49;100145.72;5123267;27;20293;-74
2021/05/08 08:38:36;;;;;;;;;;;;;;;12.93;48.14;100147.38;5124690;27;19927;-74
2021/05/08 08:41:04;;;;;;;;;;;;;;;13.09;47.84;100145.63;5124900;27;19923;-75
2021/05/08 08:43:35;;;;;;;;;;;;;;;13.10;47.50;100144.78;5135721;27;19923;-70
2021/05/08 08:46:07;;;;;;;;;;;;;;;12.97;47.30;100154.19;5135826;27;19924;-73
2021/05/08 08:48:39;;;;;;;;;;;;;;;12.80;46.59;100150.81;5135817;27;20353;-70
2021/05/08 08:51:08;;;;;;;;;;;;;;;12.67;46.21;100144.84;5136002;27;19930;-72
2021/05/08 08:53:39;;;;;;;;;;;;;;;12.79;46.46;100138.84;5135774;27;19959;-71
2021/05/08 08:56:10;;;;;;;;;;;;;;;12.92;46.40;100145.66;5135779;27;19962;-73
2021/05/08 08:58:41;;;;;;;;;;;;;;;13.33;48.32;100148.97;5135619;27;19923;-73
2021/05/08 09:01:10;;;;;;;;;;;;;;;13.86;48.52;100151.22;5135993;27;19924;-72
2021/05/08 09:03:42;;;;;;;;;;;;;;;13.94;46.53;100148.63;5135583;27;19923;-74
2021/05/08 09:06:13;;;;;;;;;;;;;;;14.11;45.05;100141.63;5135682;27;19923;-73
2021/05/08 09:08:44;;;;;;;;;;;;;;;14.21;43.35;100142.41;4847943;27;20372;-70
2021/05/08 09:11:17;;;;;;;;;;;;;;;14.26;42.75;100138.09;5135667;27;19923;-71
2021/05/08 09:13:45;;;;;;;;;;;;;;;14.50;42.88;100135.34;5135239;27;19924;-70
2021/05/08 09:16:15;;;;;;;;;;;;;;;14.89;42.60;100128.94;5135028;27;19924;-71
2021/05/08 09:18:48;;;;;;;;;;;;;;;15.20;42.43;100130.28;5135415;27;19923;-73
2021/05/08 09:21:27;;;;;;;;;;;;;;;15.37;42.77;100123.22;5135094;27;20023;-74
2021/05/08 09:23:59;;;;;;;;;;;;;;;15.29;43.10;100128.47;5135362;27;19924;-73
2021/05/08 09:26:37;;;;;;;;;;;;;;;14.93;42.15;100130.59;5135359;27;19966;-73
2021/05/08 09:29:17;;;;;;;;;;;;;;;14.56;41.40;100136.16;5135529;27;20373;-72
2021/05/08 09:31:52;;;;;;;;;;;;;;;14.35;41.88;100140.63;5134970;27;20008;-73
2021/05/08 09:34:24;;;;;;;;;;;;;;;14.37;42.37;100138.91;5134643;28;20315;-71
2021/05/08 09:36:56;;;;;;;;;;;;;;;14.34;41.19;100142.34;5116901;28;19931;-71
2021/05/08 09:39:28;;;;;;;;;;;;;;;14.24;40.77;100148.38;5135007;28;19923;-72
2021/05/08 09:42:00;;;;;;;;;;;;;;;14.26;41.12;100145.78;5135471;28;19923;-72
2021/05/08 09:44:31;;;;;;;;;;;;;;;14.52;40.80;100143.88;5135164;28;20416;-72
2021/05/08 09:47:02;;;;;;;;;;;;;;;14.97;39.88;100138.25;5135147;28;19923;-72
2021/05/08 09:49:31;;;;;;;;;;;;;;;15.31;39.38;100128.44;5135128;28;19928;-69
2021/05/08 09:52:02;;;;;;;;;;;;;;;15.33;39.48;100129.28;5135050;28;19923;-74
2021/05/08 09:54:33;;;;;;;;;;;;;;;15.34;39.65;100131.81;5135303;28;19980;-71
2021/05/08 09:57:22;;;;;;;;;;;;;;;15.23;38.46;100132.84;5135232;28;19930;-71
2021/05/08 09:59:54;;;;;;;;;;;;;;;15.05;38.39;100135.59;5134861;28;19924;-73
2021/05/08 10:02:25;;;;;;;;;;;;;;;15.04;39.35;100133.94;5134999;28;19932;-73
2021/05/08 10:05:15;;;;;;;;;;;;;;;15.20;40.16;100131.16;5071423;28;19925;-72
2021/05/08 10:07:46;;;;;;;;;;;;;;;15.37;40.35;100133.50;5071420;28;19925;-72
2021/05/08 10:10:15;;;;;;;;;;;;;;;15.35;39.69;100124.97;5071253;28;19931;-72
2021/05/08 10:12:49;;;;;;;;;;;;;;;15.47;39.03;100129.13;5055814;28;19994;-72
2021/05/08 10:15:17;;;;;;;;;;;;;;;15.53;38.15;100119.59;5071714;28;19928;-72
2021/05/08 10:17:47;;;;;;;;;;;;;;;15.62;37.56;100116.88;5071608;28;20119;-71
2021/05/08 10:20:17;;;;;;;;;;;;;;;15.53;36.62;100114.44;5071901;28;20003;-70
2021/05/08 10:22:50;;;;;;;;;;;;;;;15.61;37.05;100124.63;5082364;28;19930;-72
2021/05/08 10:25:19;;;;;;;;;;;;;;;15.70;38.79;100122.78;5114300;28;19930;-73
2021/05/08 10:27:50;;;;;;;;;;;;;;;15.69;37.95;100113.34;5114141;28;20022;-73
2021/05/08 10:30:19;;;;;;;;;;;;;;;15.86;37.36;100098.50;5114288;28;19963;-71
2021/05/08 10:32:51;;;;;;;;;;;;;;;15.94;37.90;100112.13;5114163;28;19927;-73
2021/05/08 10:35:24;;;;;;;;;;;;;;;15.99;37.81;100110.34;5114273;28;19924;-72
2021/05/08 10:38:06;;;;;;;;;;;;;;;15.93;37.20;100115.56;5114004;28;19924;-72
2021/05/08 10:40:47;;;;;;;;;;;;;;;15.76;37.41;100117.56;5114092;28;19924;-72
2021/05/08 10:43:30;;;;;;;;;;;;;;;15.81;37.54;100118.31;5112908;28;19963;-72
2021/05/08 10:46:02;;;;;;;;;;;;;;;16.15;37.58;100110.09;5116693;28;19928;-72
2021/05/08 10:48:34;;;;;;;;;;;;;;;16.42;36.52;100107.03;5117957;28;20387;-72
2021/05/08 10:51:07;;;;;;;;;;;;;;;16.56;35.89;100097.34;5117866;28;19931;-74
2021/05/08 10:53:42;;;;;;;;;;;;;;;16.39;36.01;100109.66;5117876;27;20377;-70
2021/05/08 10:56:21;;;;;;;;;;;;;;;16.29;35.89;100102.97;5116623;28;20403;-72
2021/05/08 10:59:02;;;;;;;;;;;;;;;16.52;36.16;100090.56;5117246;28;20397;-73
2021/05/08 11:01:41;;;;;;;;;;;;;;;16.52;35.91;100100.88;5116280;28;19928;-72
2021/05/08 11:04:12;;;;;;;;;;;;;;;16.88;36.61;100105.34;5117461;28;19981;-73
2021/05/08 11:06:46;;;;;;;;;;;;;;;17.21;36.52;100096.94;5117382;28;19924;-72
2021/05/08 11:09:28;;;;;;;;;;;;;;;17.34;35.51;100088.06;5120943;27;20373;-73
2021/05/08 11:12:00;;;;;;;;;;;;;;;17.64;35.22;100090.84;5138266;27;19927;-71
2021/05/08 11:14:43;;;;;;;;;;;;;;;17.31;32.81;100082.94;5137743;27;19923;-71
2021/05/08 11:17:14;;;;;;;;;;;;;;;17.36;32.84;100088.88;5137628;27;19930;-72
2021/05/08 11:19:45;;;;;;;;;;;;;;;17.65;32.98;100085.66;5137625;27;20395;-72
2021/05/08 11:22:16;;;;;;;;;;;;;;;17.87;32.96;100088.59;5137590;27;20009;-71
2021/05/08 11:24:48;;;;;;;;;;;;;;;18.19;33.67;100078.31;5137518;27;19972;-71
2021/05/08 11:27:26;;;;;;;;;;;;;;;17.71;32.09;100074.31;5119145;27;19972;-71
2021/05/08 11:30:07;;;;;;;;;;;;;;;17.53;32.72;100072.19;5118756;27;19924;-72
2021/05/08 11:32:47;;;;;;;;;;;;;;;17.48;32.80;100081.72;5137073;27;20399;-72
2021/05/08 11:35:27;;;;;;;;;;;;;;;17.54;33.24;100076.47;5137332;27;19923;-72
2021/05/08 11:38:20;;;;;;;;;;;;;;;17.67;32.91;100063.25;5137220;27;19923;-71
2021/05/08 11:40:52;;;;;;;;;;;;;;;17.43;31.95;100074.09;5128053;27;19929;-70
2021/05/08 11:43:23;;;;;;;;;;;;;;;17.49;31.99;100078.28;5137539;27;19928;-73
2021/05/08 11:45:59;;;;;;;;;;;;;;;17.94;33.09;100069.50;5137142;27;19927;-71
2021/05/08 11:48:31;;;;;;;;;;;;;;;18.05;32.27;100065.75;5137327;27;20362;-72
2021/05/08 11:51:04;;;;;;;;;;;;;;;18.00;32.40;100067.59;5137095;27;19969;-72
2021/05/08 11:53:37;;;;;;;;;;;;;;;17.58;32.93;100067.78;5136622;27;20288;-72
2021/05/08 11:56:09;;;;;;;;;;;;;;;17.38;33.58;100061.28;5136525;27;19924;-72
2021/05/08 11:58:40;;;;;;;;;;;;;;;17.42;33.17;100057.75;5136497;27;19924;-71
2021/05/08 12:01:18;;;;;;;;;;;;;;;17.62;33.87;100061.63;5136745;27;19927;-72
2021/05/08 12:03:53;;;;;;;;;;;;;;;17.85;33.61;100057.63;5137651;27;19924;-72
2021/05/08 12:06:22;;;;;;;;;;;;;;;18.03;32.83;100049.44;5136975;27;19966;-72
2021/05/08 12:08:50;;;;;;;;;;;;;;;17.94;32.71;100056.56;5135990;27;20369;-72
2021/05/08 12:11:22;;;;;;;;;;;;;;;17.76;33.03;100041.50;5095604;28;19924;-72
2021/05/08 12:13:54;;;;;;;;;;;;;;;17.41;32.32;100050.06;5095685;28;19930;-71
2021/05/08 12:16:25;;;;;;;;;;;;;;;17.08;31.77;100051.66;5095586;28;19986;-71
2021/05/08 12:18:54;;;;;;;;;;;;;;;16.92;31.69;100055.41;5095294;28;19931;-72
2021/05/08 12:21:23;;;;;;;;;;;;;;;16.82;31.85;100038.41;5095437;28;19931;-71
2021/05/08 12:24:02;;;;;;;;;;;;;;;16.89;32.57;100039.16;5095737;28;19954;-71
2021/05/08 12:26:31;;;;;;;;;;;;;;;16.82;31.75;100041.00;5095656;28;19935;-70
2021/05/08 12:28:59;;;;;;;;;;;;;;;16.82;32.31;100038.41;5095005;28;20313;-71
2021/05/08 12:31:28;;;;;;;;;;;;;;;16.75;32.35;100032.53;5095202;28;19989;-72
2021/05/08 12:34:21;;;;;;;;;;;;;;;16.97;33.03;100027.78;5094852;28;19931;-71
2021/05/08 12:36:59;;;;;;;;;;;;;;;17.09;32.33;100027.53;5094871;28;19956;-71
2021/05/08 12:39:28;;;;;;;;;;;;;;;17.17;31.80;100025.66;5094840;28;20016;-71
2021/05/08 12:41:57;;;;;;;;;;;;;;;17.61;32.70;100021.25;5094646;28;19924;-71
2021/05/08 12:44:32;;;;;;;;;;;;;;;17.64;31.35;100018.56;5094977;28;19928;-70
2021/05/08 12:47:04;;;;;;;;;;;;;;;17.79;31.45;100010.44;5095138;28;20317;-70
2021/05/08 12:49:54;;;;;;;;;;;;;;;17.44;31.23;100016.44;5094751;28;19928;-71
2021/05/08 12:52:23;;;;;;;;;;;;;;;17.17;31.60;100023.06;5094761;28;20335;-71
2021/05/08 12:54:51;;;;;;;;;;;;;;;17.03;32.56;100012.22;5094504;28;20296;-71
2021/05/08 12:57:20;;;;;;;;;;;;;;;16.94;33.10;100022.69;5094714;28;19950;-72
2021/05/08 12:59:59;;;;;;;;;;;;;;;16.96;34.15;100015.81;5094526;28;19931;-71
2021/05/08 13:02:29;;;;;;;;;;;;;;;17.20;33.75;100012.66;5094520;28;19939;-73
2021/05/08 13:05:06;;;;;;;;;;;;;;;17.35;33.85;100007.16;5094530;28;19994;-71